createdAt,value
2019-05-19T00:00:48.850Z,7.80
2019-05-19T00:03:17.546Z,7.80
2019-05-19T00:05:46.255Z,7.70
2019-05-19T00:08:15.039Z,7.80
2019-05-19T00:10:43.826Z,8.00
2019-05-19T00:13:12.514Z,8.10
2019-05-19T00:15:41.306Z,8.20
2019-05-19T00:18:09.988Z,8.10
2019-05-19T00:20:38.776Z,8.00
2019-05-19T00:23:07.473Z,7.90
2019-05-19T00:25:36.176Z,7.90
2019-05-19T00:28:04.981Z,7.90
2019-05-19T00:30:33.683Z,7.90
2019-05-19T00:33:02.450Z,7.90
2019-05-19T00:35:31.201Z,7.90
2019-05-19T00:37:59.889Z,7.90
2019-05-19T00:40:28.576Z,7.90
2019-05-19T00:42:57.344Z,7.90
2019-05-19T00:45:26.052Z,7.90
2019-05-19T00:47:54.760Z,7.80
2019-05-19T00:50:23.465Z,7.80
2019-05-19T00:52:52.164Z,7.80
2019-05-19T00:55:20.867Z,7.90
2019-05-19T00:57:50.549Z,7.80
2019-05-19T01:00:21.320Z,7.80
2019-05-19T01:02:50.039Z,7.80
2019-05-19T01:05:20.679Z,7.90
2019-05-19T01:07:49.083Z,8.10
2019-05-19T01:10:17.881Z,8.20
2019-05-19T01:12:46.580Z,8.20
2019-05-19T01:15:15.860Z,8.40
2019-05-19T01:17:44.639Z,8.50
2019-05-19T01:20:13.549Z,8.60
2019-05-19T01:22:42.259Z,8.50
2019-05-19T01:25:11.043Z,8.40
2019-05-19T01:27:39.732Z,8.30
2019-05-19T01:30:11.023Z,8.30
2019-05-19T01:32:39.707Z,8.20
2019-05-19T01:35:08.711Z,8.30
2019-05-19T01:37:37.413Z,8.30
2019-05-19T01:40:07.615Z,8.30
2019-05-19T01:42:36.621Z,8.30
2019-05-19T01:45:07.149Z,8.30
2019-05-19T01:47:35.928Z,8.30
2019-05-19T01:50:17.563Z,8.30
2019-05-19T01:52:36.485Z,8.40
2019-05-19T01:55:06.571Z,8.40
2019-05-19T01:57:35.271Z,8.40
2019-05-19T02:00:06.748Z,8.40
2019-05-19T02:02:35.456Z,8.40
2019-05-19T02:05:07.953Z,8.40
2019-05-19T02:07:36.700Z,8.40
2019-05-19T02:10:09.962Z,8.40
2019-05-19T02:12:38.642Z,8.40
2019-05-19T02:15:08.141Z,8.50
2019-05-19T02:17:36.915Z,8.50
2019-05-19T02:20:09.783Z,8.60
2019-05-19T02:22:38.477Z,8.60
2019-05-19T02:25:08.166Z,8.60
2019-05-19T02:27:36.883Z,8.60
2019-05-19T02:30:07.593Z,8.50
2019-05-19T02:32:36.294Z,8.50
2019-05-19T02:35:08.602Z,8.60
2019-05-19T02:37:37.387Z,8.70
2019-05-19T02:40:07.733Z,8.80
2019-05-19T02:42:41.742Z,8.80
2019-05-19T02:45:11.147Z,8.80
2019-05-19T02:47:43.865Z,8.80
2019-05-19T02:50:13.174Z,8.80
2019-05-19T02:52:43.669Z,8.90
2019-05-19T02:55:12.455Z,8.90
2019-05-19T02:57:42.465Z,9.00
2019-05-19T03:00:11.940Z,9.00
2019-05-19T03:02:40.715Z,8.90
2019-05-19T03:05:09.734Z,9.00
2019-05-19T03:07:38.440Z,9.10
2019-05-19T03:10:08.643Z,9.20
2019-05-19T03:12:37.414Z,9.20
2019-05-19T03:15:06.922Z,9.30
2019-05-19T03:17:35.693Z,9.40
2019-05-19T03:20:06.277Z,9.40
2019-05-19T03:22:34.979Z,9.40
2019-05-19T03:25:04.792Z,9.50
2019-05-19T03:27:33.489Z,9.50
2019-05-19T03:30:20.217Z,9.60
2019-05-19T03:32:50.558Z,9.70
2019-05-19T03:35:19.366Z,9.80
2019-05-19T03:37:48.037Z,9.80
2019-05-19T03:40:22.434Z,9.90
2019-05-19T03:42:51.535Z,10.10
2019-05-19T03:45:20.317Z,10.10
2019-05-19T03:47:49.014Z,10.20
2019-05-19T03:50:17.922Z,10.30
2019-05-19T03:52:46.625Z,10.40
2019-05-19T03:55:15.547Z,10.40
2019-05-19T03:57:44.247Z,10.50
2019-05-19T04:00:13.072Z,10.60
2019-05-19T04:02:41.762Z,10.60
2019-05-19T04:05:10.639Z,10.60
2019-05-19T04:07:39.362Z,10.70
2019-05-19T04:10:08.627Z,10.70
2019-05-19T04:12:37.338Z,10.70
2019-05-19T04:15:07.621Z,10.80
2019-05-19T04:17:36.317Z,10.80
2019-05-19T04:20:06.446Z,10.90
2019-05-19T04:22:35.145Z,11.00
2019-05-19T04:25:03.954Z,11.00
2019-05-19T04:27:32.663Z,11.10
2019-05-19T04:30:01.370Z,11.20
2019-05-19T04:32:30.092Z,11.20
2019-05-19T04:34:58.787Z,11.30
2019-05-19T04:37:27.510Z,11.50
2019-05-19T04:39:56.207Z,11.50
2019-05-19T04:42:24.916Z,11.50
2019-05-19T04:44:53.629Z,11.50
2019-05-19T04:47:22.329Z,11.40
2019-05-19T04:49:51.115Z,11.50
2019-05-19T04:52:19.821Z,11.50
2019-05-19T04:54:48.609Z,11.50
2019-05-19T04:57:17.307Z,11.60
2019-05-19T04:59:46.017Z,11.60
2019-05-19T05:02:14.777Z,11.60
2019-05-19T05:04:43.502Z,11.60
2019-05-19T05:07:12.205Z,11.80
2019-05-19T05:09:40.986Z,11.80
2019-05-19T05:12:09.685Z,11.80
2019-05-19T05:14:38.393Z,11.80
2019-05-19T05:17:07.103Z,11.80
2019-05-19T05:19:35.813Z,11.90
2019-05-19T05:22:04.604Z,12.00
2019-05-19T05:24:33.388Z,12.10
2019-05-19T05:27:02.105Z,12.00
2019-05-19T05:29:30.798Z,12.10
2019-05-19T05:31:59.495Z,12.10
2019-05-19T05:34:28.213Z,12.00
2019-05-19T05:36:56.992Z,12.00
2019-05-19T05:39:25.714Z,12.00
2019-05-19T05:41:54.414Z,12.10
2019-05-19T05:44:23.121Z,12.10
2019-05-19T05:46:51.827Z,12.10
2019-05-19T05:49:20.552Z,12.20
2019-05-19T05:51:49.268Z,12.20
2019-05-19T05:54:18.042Z,12.10
2019-05-19T05:56:46.741Z,12.10
2019-05-19T05:59:15.455Z,12.10
2019-05-19T06:01:44.163Z,12.10
2019-05-19T06:04:12.954Z,12.20
2019-05-19T06:06:41.658Z,12.10
2019-05-19T06:09:10.365Z,12.10
2019-05-19T06:11:39.097Z,12.20
2019-05-19T06:14:07.784Z,12.30
2019-05-19T06:16:36.768Z,12.50
2019-05-19T06:19:05.550Z,12.40
2019-05-19T06:21:34.249Z,12.40
2019-05-19T06:24:02.989Z,12.40
2019-05-19T06:26:31.708Z,12.50
2019-05-19T06:29:00.425Z,12.60
2019-05-19T06:31:29.120Z,12.50
2019-05-19T06:33:57.826Z,12.50
2019-05-19T06:36:26.567Z,12.60
2019-05-19T06:38:55.363Z,12.70
2019-05-19T06:41:24.035Z,12.70
2019-05-19T06:43:52.822Z,12.70
2019-05-19T06:46:21.522Z,12.80
2019-05-19T06:48:50.234Z,12.70
2019-05-19T06:51:18.934Z,12.60
2019-05-19T06:53:47.724Z,12.40
2019-05-19T06:56:35.706Z,12.30
2019-05-19T06:59:04.417Z,12.20
2019-05-19T07:01:33.139Z,12.20
2019-05-19T07:04:01.921Z,12.10
2019-05-19T07:06:30.689Z,12.10
2019-05-19T07:08:59.469Z,12.10
2019-05-19T07:11:28.195Z,12.00
2019-05-19T07:13:56.973Z,12.00
2019-05-19T07:16:25.685Z,11.90
2019-05-19T07:18:54.417Z,11.90
2019-05-19T07:21:23.189Z,11.90
2019-05-19T07:23:51.905Z,11.80
2019-05-19T07:26:20.611Z,11.90
2019-05-19T07:28:49.425Z,11.90
2019-05-19T07:31:18.130Z,11.90
2019-05-19T07:33:46.954Z,12.00
2019-05-19T07:36:15.633Z,12.10
2019-05-19T07:38:44.332Z,12.20
2019-05-19T07:41:13.042Z,12.40
2019-05-19T07:43:41.749Z,12.60
2019-05-19T07:46:10.550Z,12.70
2019-05-19T07:48:39.269Z,12.80
2019-05-19T07:51:08.066Z,12.70
2019-05-19T07:53:42.963Z,12.70
2019-05-19T07:56:07.143Z,12.70
2019-05-19T07:58:35.849Z,12.70
2019-05-19T08:01:04.626Z,12.60
2019-05-19T08:03:33.350Z,12.40
2019-05-19T08:06:02.146Z,12.30
2019-05-19T08:08:31.136Z,12.30
2019-05-19T08:10:59.904Z,12.20
2019-05-19T08:13:28.605Z,12.20
2019-05-19T08:15:57.325Z,12.10
2019-05-19T08:18:26.037Z,12.00
2019-05-19T08:20:54.825Z,12.00
2019-05-19T08:23:23.609Z,12.00
2019-05-19T08:25:52.333Z,12.10
2019-05-19T08:28:21.033Z,12.20
2019-05-19T08:30:49.741Z,12.10
2019-05-19T08:33:18.564Z,12.10
2019-05-19T08:35:47.310Z,12.30
2019-05-19T08:38:16.089Z,12.30
2019-05-19T08:40:44.929Z,12.30
2019-05-19T08:43:13.609Z,12.40
2019-05-19T08:45:42.385Z,12.30
2019-05-19T08:48:11.100Z,12.40
2019-05-19T08:50:39.870Z,12.40
2019-05-19T08:53:08.574Z,12.20
2019-05-19T08:55:37.292Z,12.10
2019-05-19T08:58:06.001Z,12.10
2019-05-19T09:00:38.261Z,12.10
2019-05-19T09:03:05.242Z,12.10
2019-05-19T09:05:33.893Z,12.00
2019-05-19T09:08:02.601Z,12.00
2019-05-19T09:10:31.389Z,11.90
2019-05-19T09:13:00.157Z,11.80
2019-05-19T09:15:28.872Z,11.80
2019-05-19T09:17:57.591Z,11.90
2019-05-19T09:20:26.365Z,12.00
2019-05-19T09:22:55.065Z,11.90
2019-05-19T09:25:23.771Z,11.80
2019-05-19T09:27:52.753Z,11.80
2019-05-19T09:30:21.454Z,11.90
2019-05-19T09:32:50.245Z,11.90
2019-05-19T09:35:19.136Z,11.90
2019-05-19T09:37:47.845Z,11.90
2019-05-19T09:40:16.638Z,11.90
2019-05-19T09:42:45.349Z,11.90
2019-05-19T09:45:15.641Z,11.80
2019-05-19T09:47:44.286Z,11.70
2019-05-19T09:50:13.154Z,11.70
2019-05-19T09:52:41.866Z,11.60
2019-05-19T09:55:10.873Z,11.70
2019-05-19T09:57:39.584Z,11.70
2019-05-19T10:00:10.507Z,11.80
2019-05-19T10:02:39.291Z,11.90
2019-05-19T10:05:08.093Z,11.90
2019-05-19T10:07:36.824Z,12.00
2019-05-19T10:10:08.641Z,12.00
2019-05-19T10:12:37.401Z,12.30
2019-05-19T10:15:07.310Z,12.20
2019-05-19T10:17:36.021Z,12.40
2019-05-19T10:20:07.655Z,12.70
2019-05-19T10:22:36.419Z,12.60
2019-05-19T10:25:20.848Z,12.70
2019-05-19T10:27:37.752Z,12.80
2019-05-19T10:30:08.501Z,12.90
2019-05-19T10:32:37.206Z,13.00
2019-05-19T10:35:06.203Z,13.20
2019-05-19T10:37:34.922Z,13.40
2019-05-19T10:40:04.617Z,13.50
2019-05-19T10:42:33.533Z,13.50
2019-05-19T10:45:02.245Z,13.90
2019-05-19T10:47:30.949Z,14.30
2019-05-19T10:49:59.734Z,14.70
2019-05-19T10:52:28.444Z,15.50
2019-05-19T10:54:57.153Z,16.60
2019-05-19T10:57:25.933Z,17.40
2019-05-19T10:59:54.660Z,18.90
2019-05-19T11:02:23.376Z,20.60
2019-05-19T11:04:52.149Z,20.80
2019-05-19T11:07:20.865Z,21.10
2019-05-19T11:09:49.576Z,21.70
2019-05-19T11:12:18.276Z,22.50
2019-05-19T11:14:46.994Z,23.20
2019-05-19T11:17:16.194Z,22.70
2019-05-19T11:19:44.969Z,21.30
2019-05-19T11:22:13.692Z,20.00
2019-05-19T11:24:42.454Z,19.70
2019-05-19T11:27:11.217Z,19.70
2019-05-19T11:29:39.919Z,19.60
2019-05-19T11:32:08.641Z,19.60
2019-05-19T11:34:37.345Z,19.00
2019-05-19T11:37:07.458Z,18.60
2019-05-19T11:39:36.325Z,18.60
2019-05-19T11:42:05.113Z,18.50
2019-05-19T11:44:33.913Z,18.70
2019-05-19T11:47:02.618Z,18.90
2019-05-19T11:49:31.387Z,18.90
2019-05-19T11:52:00.206Z,18.50
2019-05-19T11:54:28.883Z,18.30
2019-05-19T11:56:57.598Z,18.30
2019-05-19T11:59:26.385Z,18.60
2019-05-19T12:01:55.163Z,18.40
2019-05-19T12:04:23.953Z,18.40
2019-05-19T12:06:52.735Z,18.10
2019-05-19T12:09:21.559Z,18.10
2019-05-19T12:11:50.257Z,18.20
2019-05-19T12:14:18.982Z,19.40
2019-05-19T12:16:47.771Z,20.80
2019-05-19T12:19:16.444Z,21.00
2019-05-19T12:21:45.166Z,21.50
2019-05-19T12:24:13.952Z,22.10
2019-05-19T12:26:42.740Z,22.70
2019-05-19T12:29:11.444Z,23.80
2019-05-19T12:31:40.214Z,24.70
2019-05-19T12:34:08.930Z,24.70
2019-05-19T12:36:37.692Z,24.00
2019-05-19T12:39:07.221Z,23.00
2019-05-19T12:41:35.944Z,23.20
2019-05-19T12:44:04.722Z,23.00
2019-05-19T12:46:33.501Z,22.50
2019-05-19T12:49:02.214Z,22.50
2019-05-19T12:51:30.945Z,22.40
2019-05-19T12:53:59.641Z,22.80
2019-05-19T12:56:39.145Z,22.30
2019-05-19T12:58:59.013Z,21.60
2019-05-19T13:01:28.321Z,21.50
2019-05-19T13:03:57.048Z,21.50
2019-05-19T13:06:25.753Z,21.60
2019-05-19T13:08:54.525Z,21.60
2019-05-19T13:11:23.249Z,21.80
2019-05-19T13:13:52.022Z,22.00
2019-05-19T13:16:20.742Z,21.50
2019-05-19T13:18:49.514Z,20.50
2019-05-19T13:21:18.264Z,20.40
2019-05-19T13:23:47.006Z,20.30
2019-05-19T13:26:15.779Z,20.20
2019-05-19T13:28:44.489Z,19.80
2019-05-19T13:31:13.293Z,19.80
2019-05-19T13:33:42.001Z,19.20
2019-05-19T13:36:10.782Z,19.10
2019-05-19T13:38:39.571Z,18.10
2019-05-19T13:41:08.278Z,17.80
2019-05-19T13:43:36.975Z,17.40
2019-05-19T13:46:05.672Z,17.00
2019-05-19T13:48:34.430Z,17.00
2019-05-19T13:51:03.175Z,17.10
2019-05-19T13:53:31.873Z,17.40
2019-05-19T13:56:00.573Z,17.40
2019-05-19T13:58:29.429Z,17.50
2019-05-19T14:00:58.106Z,18.00
2019-05-19T14:03:26.870Z,18.00
2019-05-19T14:05:55.665Z,18.40
2019-05-19T14:08:24.368Z,18.30
2019-05-19T14:10:53.077Z,18.00
2019-05-19T14:13:21.809Z,17.70
2019-05-19T14:15:50.510Z,17.30
2019-05-19T14:18:19.341Z,17.00
2019-05-19T14:20:48.105Z,16.80
2019-05-19T14:23:16.842Z,16.80
2019-05-19T14:25:45.537Z,16.50
2019-05-19T14:28:14.336Z,16.50
2019-05-19T14:30:43.113Z,16.70
2019-05-19T14:33:11.814Z,16.70
2019-05-19T14:35:40.601Z,17.20
2019-05-19T14:38:09.360Z,17.60
2019-05-19T14:40:38.097Z,17.80
2019-05-19T14:43:06.864Z,17.30
2019-05-19T14:45:35.645Z,17.00
2019-05-19T14:48:04.442Z,17.30
2019-05-19T14:50:33.209Z,17.50
2019-05-19T14:53:02.000Z,17.70
2019-05-19T14:55:30.776Z,17.70
2019-05-19T14:57:59.507Z,17.50
2019-05-19T15:00:28.298Z,17.50
2019-05-19T15:02:57.007Z,17.40
2019-05-19T15:05:25.726Z,17.40
2019-05-19T15:07:54.548Z,17.30
2019-05-19T15:10:23.360Z,17.30
2019-05-19T15:12:52.168Z,17.00
2019-05-19T15:15:21.077Z,17.20
2019-05-19T15:17:49.780Z,16.90
2019-05-19T15:20:19.094Z,17.00
2019-05-19T15:22:47.829Z,16.80
2019-05-19T15:25:16.729Z,16.90
2019-05-19T15:27:59.253Z,17.10
2019-05-19T15:30:16.245Z,17.10
2019-05-19T15:32:45.044Z,17.00
2019-05-19T15:35:13.925Z,17.20
2019-05-19T15:37:42.721Z,17.20
2019-05-19T15:40:11.590Z,17.30
2019-05-19T15:42:40.497Z,17.30
2019-05-19T15:45:10.790Z,17.20
2019-05-19T15:47:39.508Z,17.10
2019-05-19T15:50:08.890Z,16.90
2019-05-19T15:52:37.585Z,17.00
2019-05-19T15:55:06.755Z,16.80
2019-05-19T15:57:35.736Z,17.00
2019-05-19T16:00:07.216Z,17.30
2019-05-19T16:02:36.288Z,17.40
2019-05-19T16:05:06.636Z,17.20
2019-05-19T16:07:35.337Z,17.10
2019-05-19T16:10:06.996Z,17.10
2019-05-19T16:12:35.685Z,17.20
2019-05-19T16:15:06.417Z,17.30
2019-05-19T16:17:35.204Z,17.30
2019-05-19T16:20:07.576Z,17.40
2019-05-19T16:22:36.370Z,17.50
2019-05-19T16:25:08.055Z,17.20
2019-05-19T16:27:36.760Z,17.20
2019-05-19T16:30:09.824Z,17.10
2019-05-19T16:32:38.544Z,17.10
2019-05-19T16:35:07.950Z,17.10
2019-05-19T16:37:36.737Z,16.90
2019-05-19T16:40:06.281Z,16.80
2019-05-19T16:42:35.086Z,16.50
2019-05-19T16:45:04.988Z,16.40
2019-05-19T16:47:33.759Z,16.30
2019-05-19T16:50:02.552Z,16.20
2019-05-19T16:52:31.406Z,16.10
2019-05-19T16:55:17.933Z,16.10
2019-05-19T16:57:46.705Z,16.10
2019-05-19T17:00:15.582Z,16.30
2019-05-19T17:02:44.301Z,16.30
2019-05-19T17:05:13.371Z,16.40
2019-05-19T17:07:42.092Z,16.30
2019-05-19T17:10:11.076Z,16.20
2019-05-19T17:12:39.807Z,16.30
2019-05-19T17:15:09.122Z,16.20
2019-05-19T17:17:37.909Z,16.20
2019-05-19T17:20:07.925Z,16.20
2019-05-19T17:22:36.628Z,16.20
2019-05-19T17:25:08.183Z,16.20
2019-05-19T17:27:36.980Z,16.20
2019-05-19T17:30:10.810Z,16.20
2019-05-19T17:32:39.547Z,16.20
2019-05-19T17:35:08.874Z,16.20
2019-05-19T17:37:37.633Z,16.00
2019-05-19T17:40:06.758Z,15.80
2019-05-19T17:42:37.274Z,15.70
2019-05-19T17:45:07.172Z,15.60
2019-05-19T17:47:36.081Z,15.50
2019-05-19T17:50:05.544Z,15.30
2019-05-19T17:52:34.265Z,15.20
2019-05-19T17:55:03.250Z,15.00
2019-05-19T17:57:33.644Z,14.80
2019-05-19T18:00:03.527Z,14.60
2019-05-19T18:02:32.252Z,14.50
2019-05-19T18:05:01.072Z,14.40
2019-05-19T18:07:29.804Z,14.40
2019-05-19T18:09:58.578Z,14.30
2019-05-19T18:12:27.373Z,14.20
2019-05-19T18:14:56.098Z,14.20
2019-05-19T18:17:24.880Z,14.10
2019-05-19T18:19:53.585Z,14.10
2019-05-19T18:22:22.413Z,14.00
2019-05-19T18:24:51.084Z,14.00
2019-05-19T18:27:19.865Z,13.90
2019-05-19T18:29:48.654Z,13.90
2019-05-19T18:32:17.445Z,13.80
2019-05-19T18:34:46.153Z,13.80
2019-05-19T18:37:14.941Z,13.70
2019-05-19T18:39:43.734Z,13.60
2019-05-19T18:42:12.474Z,13.60
2019-05-19T18:44:41.163Z,13.50
2019-05-19T18:47:09.949Z,13.50
2019-05-19T18:49:38.688Z,13.40
2019-05-19T18:52:07.437Z,13.40
2019-05-19T18:54:36.234Z,13.30
2019-05-19T18:57:04.951Z,13.10
2019-05-19T18:59:46.494Z,13.00
2019-05-19T19:02:04.278Z,12.90
2019-05-19T19:04:33.091Z,12.80
2019-05-19T19:07:01.867Z,12.60
2019-05-19T19:09:30.689Z,12.40
2019-05-19T19:11:59.480Z,12.30
2019-05-19T19:14:28.275Z,12.30
2019-05-19T19:16:56.998Z,12.20
2019-05-19T19:19:25.707Z,12.00
2019-05-19T19:21:54.518Z,11.90
2019-05-19T19:24:23.308Z,11.80
2019-05-19T19:26:52.031Z,11.80
2019-05-19T19:29:20.816Z,11.70
2019-05-19T19:31:49.664Z,11.60
2019-05-19T19:34:18.380Z,11.50
2019-05-19T19:36:47.164Z,11.40
2019-05-19T19:39:15.923Z,11.30
2019-05-19T19:41:44.785Z,11.20
2019-05-19T19:44:13.521Z,11.10
2019-05-19T19:46:42.312Z,11.00
2019-05-19T19:49:11.021Z,10.90
2019-05-19T19:51:39.812Z,10.80
2019-05-19T19:54:08.660Z,10.80
2019-05-19T19:56:37.385Z,10.70
2019-05-19T19:59:06.083Z,10.60
2019-05-19T20:01:34.858Z,10.50
2019-05-19T20:04:03.645Z,10.40
2019-05-19T20:06:32.408Z,10.40
2019-05-19T20:09:01.201Z,10.30
2019-05-19T20:11:29.901Z,10.20
2019-05-19T20:13:58.649Z,10.10
2019-05-19T20:16:27.330Z,9.90
2019-05-19T20:18:56.102Z,9.90
2019-05-19T20:21:24.918Z,9.90
2019-05-19T20:23:53.692Z,9.80
2019-05-19T20:26:22.481Z,9.80
2019-05-19T20:28:51.186Z,9.60
2019-05-19T20:31:19.886Z,9.60
2019-05-19T20:33:48.608Z,9.60
2019-05-19T20:36:17.305Z,9.50
2019-05-19T20:38:46.141Z,9.50
2019-05-19T20:41:14.848Z,9.50
2019-05-19T20:43:43.628Z,9.40
2019-05-19T20:46:12.403Z,9.30
2019-05-19T20:48:41.173Z,9.30
2019-05-19T20:51:09.983Z,9.20
2019-05-19T20:53:38.749Z,9.20
2019-05-19T20:56:07.490Z,9.20
2019-05-19T20:58:36.188Z,9.10
2019-05-19T21:01:04.960Z,9.00
2019-05-19T21:03:33.695Z,9.00
2019-05-19T21:06:02.401Z,8.90
2019-05-19T21:08:31.123Z,8.80
2019-05-19T21:11:00.418Z,8.80
2019-05-19T21:13:29.195Z,8.80
2019-05-19T21:15:58.894Z,8.70
2019-05-19T21:18:27.597Z,8.70
2019-05-19T21:20:56.309Z,8.70
2019-05-19T21:23:25.091Z,8.60
2019-05-19T21:25:53.791Z,8.70
2019-05-19T21:28:22.563Z,8.70
2019-05-19T21:31:04.827Z,8.60
2019-05-19T21:33:21.631Z,8.50
2019-05-19T21:35:50.402Z,8.40
2019-05-19T21:38:19.097Z,8.40
2019-05-19T21:40:47.805Z,8.40
2019-05-19T21:43:16.608Z,8.40
2019-05-19T21:45:45.304Z,8.40
2019-05-19T21:48:14.086Z,8.30
2019-05-19T21:50:42.858Z,8.30
2019-05-19T21:53:11.551Z,8.30
2019-05-19T21:55:40.270Z,8.20
2019-05-19T21:58:09.038Z,8.20
2019-05-19T22:00:38.023Z,8.20
2019-05-19T22:03:06.731Z,8.20
2019-05-19T22:05:35.436Z,8.20
2019-05-19T22:08:05.769Z,8.20
2019-05-19T22:10:34.581Z,8.20
2019-05-19T22:13:03.298Z,8.10
2019-05-19T22:15:32.079Z,8.10
2019-05-19T22:18:00.789Z,8.10
2019-05-19T22:20:29.516Z,8.10
2019-05-19T22:22:58.246Z,8.10
2019-05-19T22:25:26.948Z,8.00
2019-05-19T22:27:55.636Z,8.10
2019-05-19T22:30:24.371Z,8.10
2019-05-19T22:32:53.668Z,8.10
2019-05-19T22:35:22.394Z,8.00
2019-05-19T22:37:51.096Z,7.90
2019-05-19T22:40:19.808Z,7.80
2019-05-19T22:42:48.577Z,7.80
2019-05-19T22:45:17.294Z,7.80
2019-05-19T22:47:46.013Z,7.80
2019-05-19T22:50:14.918Z,7.70
2019-05-19T22:52:43.749Z,7.60
2019-05-19T22:55:12.933Z,7.50
2019-05-19T22:57:41.639Z,7.50
2019-05-19T23:00:12.314Z,7.50
2019-05-19T23:02:41.019Z,7.50
2019-05-19T23:05:10.305Z,7.50
2019-05-19T23:07:39.011Z,7.60
2019-05-19T23:10:08.360Z,7.60
2019-05-19T23:12:37.074Z,7.60
2019-05-19T23:15:09.769Z,7.60
2019-05-19T23:17:38.503Z,7.50
2019-05-19T23:20:07.390Z,7.50
2019-05-19T23:22:36.098Z,7.40
2019-05-19T23:25:06.123Z,7.40
2019-05-19T23:27:34.827Z,7.40
2019-05-19T23:30:05.298Z,7.50
2019-05-19T23:32:34.073Z,7.40
2019-05-19T23:35:02.853Z,7.40
2019-05-19T23:37:31.577Z,7.40
2019-05-19T23:40:00.364Z,7.40
2019-05-19T23:42:29.058Z,7.50
2019-05-19T23:44:57.755Z,7.40
2019-05-19T23:47:26.536Z,7.40
2019-05-19T23:49:55.256Z,7.30
2019-05-19T23:52:24.027Z,7.30
2019-05-19T23:54:52.728Z,7.20
2019-05-19T23:57:21.448Z,7.30
2019-05-19T23:59:50.136Z,7.40
